Time;durP1;ratioP1;P1;durP2;ratioP2;P2;SDS_P1;SDS_P2;PMS_P1;PMS_P2;Temp;Humidity;BMP_temperature;BMP_pressure;BME280_temperature;BME280_humidity;BME280_pressure;Samples;Min_cycle;Max_cycle;Signal;HPM_P1;HPM_P2
2023/05/15 00:00:01;;;;;;;4.30;3.30;;;9.90;99.90;;;9.50;100.00;96847.00;4975260;28;20030;-36
2023/05/15 00:02:27;;;;;;;4.95;3.40;;;9.90;99.90;;;9.56;100.00;96844.09;4977411;28;20125;-36
2023/05/15 00:04:52;;;;;;;3.38;2.97;;;9.90;99.90;;;9.64;100.00;96846.44;4972095;28;20106;-36
2023/05/15 00:07:18;;;;;;;3.92;3.50;;;10.00;99.90;;;9.67;100.00;96841.91;4976815;28;20327;-36
2023/05/15 00:09:44;;;;;;;3.70;3.28;;;10.00;99.90;;;9.69;100.00;96842.69;4975213;28;20121;-36
2023/05/15 00:12:10;;;;;;;3.63;3.08;;;10.10;99.90;;;9.69;100.00;96833.91;4976536;28;20038;-36
2023/05/15 00:14:35;;;;;;;3.17;2.72;;;10.10;99.90;;;9.63;100.00;96821.88;4978297;28;20093;-36
2023/05/15 00:17:01;;;;;;;3.70;3.03;;;10.10;99.90;;;9.69;100.00;96832.16;4978761;28;20511;-36
2023/05/15 00:19:27;;;;;;;4.00;2.90;;;10.10;99.90;;;9.69;100.00;96831.28;4968811;28;20693;-36
2023/05/15 00:21:54;;;;;;;4.28;3.38;;;10.10;99.90;;;9.62;100.00;96814.91;4974383;28;20042;-36
2023/05/15 00:24:20;;;;;;;4.72;3.50;;;10.10;99.90;;;9.68;100.00;96822.53;4979635;28;20037;-36
2023/05/15 00:26:46;;;;;;;3.42;2.83;;;10.10;99.90;;;9.72;100.00;96828.53;4974265;28;20030;-36
2023/05/15 00:29:12;;;;;;;4.38;3.00;;;10.10;99.90;;;9.72;100.00;96825.88;4969720;28;20561;-36
2023/05/15 00:31:38;;;;;;;4.00;2.67;;;10.10;99.90;;;9.73;100.00;96828.47;4971345;28;20045;-36
2023/05/15 00:34:04;;;;;;;3.53;3.00;;;10.10;99.90;;;9.74;100.00;96816.16;4975711;28;20325;-36
2023/05/15 00:36:30;;;;;;;3.70;2.90;;;10.10;99.90;;;9.77;100.00;96820.44;4975661;28;21175;-36
2023/05/15 00:38:56;;;;;;;3.20;2.90;;;10.20;99.90;;;9.80;100.00;96815.91;4969166;28;20056;-35
2023/05/15 00:41:22;;;;;;;5.22;2.90;;;10.20;99.90;;;9.87;100.00;96816.47;4973270;28;20655;-36
2023/05/15 00:43:51;;;;;;;4.45;2.70;;;10.20;99.90;;;9.93;100.00;96816.22;4976217;28;20022;-36
2023/05/15 00:46:19;;;;;;;5.15;2.80;;;10.30;99.90;;;9.94;100.00;96804.75;4973449;28;20392;-36
2023/05/15 00:48:45;;;;;;;3.78;2.85;;;10.40;99.90;;;9.97;100.00;96815.16;4971583;28;20035;-35
2023/05/15 00:51:11;;;;;;;5.57;3.65;;;10.40;99.90;;;9.96;100.00;96810.81;4976699;28;20097;-35
2023/05/15 00:53:37;;;;;;;5.18;3.10;;;10.50;99.90;;;10.03;100.00;96812.25;4971911;28;20577;-36
2023/05/15 00:56:05;;;;;;;3.97;3.33;;;10.50;99.90;;;10.07;100.00;96813.84;4960004;28;20042;-36
2023/05/15 00:58:32;;;;;;;3.80;3.00;;;10.50;99.90;;;10.08;100.00;96812.03;4971945;28;20367;-36
2023/05/15 01:00:58;;;;;;;4.03;3.00;;;10.50;99.90;;;9.95;100.00;96790.66;4955359;28;23577;-36
2023/05/15 01:03:24;;;;;;;5.25;3.00;;;10.50;99.90;;;10.07;100.00;96819.09;4964929;28;21276;-36
2023/05/15 01:05:50;;;;;;;5.25;2.80;;;10.50;99.90;;;10.02;100.00;96800.00;4957738;28;20038;-36
2023/05/15 01:08:37;;;;;;;3.67;2.78;;;10.50;99.90;;;10.10;100.00;96813.69;4959397;28;20030;-36
2023/05/15 01:11:06;;;;;;;3.65;2.55;;;10.50;99.90;;;10.10;100.00;96815.47;4957899;28;20113;-36
2023/05/15 01:13:32;;;;;;;3.95;3.00;;;10.50;99.90;;;10.08;100.00;96812.88;4959144;28;21091;-35
2023/05/15 01:15:58;;;;;;;3.53;2.75;;;10.50;99.90;;;10.03;100.00;96816.66;4961923;28;20038;-36
2023/05/15 01:18:30;;;;;;;3.80;2.92;;;10.50;99.90;;;10.06;100.00;96817.38;4961321;28;20092;-36
2023/05/15 01:20:56;;;;;;;;;;;10.50;99.90;;;10.00;100.00;96825.56;4958606;28;21101;-36
2023/05/15 01:24:01;;;;;;;4.10;3.15;;;10.40;99.90;;;9.93;100.00;96822.34;4960862;28;20315;-36
2023/05/15 01:27:14;;;;;;;3.38;2.78;;;10.40;99.90;;;9.88;100.00;96819.03;4957431;28;20061;-36
2023/05/15 01:30:21;;;;;;;4.13;2.97;;;10.30;99.90;;;9.82;100.00;96824.59;4956064;28;20113;-36
2023/05/15 01:33:03;;;;;;;3.95;2.60;;;10.20;99.90;;;9.77;100.00;96820.44;4953394;28;21223;-36
2023/05/15 01:35:50;;;;;;;3.67;2.90;;;10.20;99.90;;;9.77;100.00;96818.66;4955122;28;20026;-36
2023/05/15 01:38:34;;;;;;;3.33;2.92;;;10.20;99.90;;;9.69;100.00;96799.69;4958051;28;20042;-36
2023/05/15 01:41:26;;;;;;;3.20;2.85;;;10.20;99.90;;;9.81;100.00;96817.59;4958617;28;20283;-36
2023/05/15 01:44:01;;;;;;;3.15;2.78;;;10.20;99.90;;;9.83;100.00;96820.16;4953348;28;20043;-36
2023/05/15 01:46:30;;;;;;;3.25;2.40;;;10.20;99.90;;;9.90;100.00;96826.88;4955590;28;20041;-36
2023/05/15 01:49:00;;;;;;;8.90;2.85;;;10.20;99.90;;;9.94;100.00;96820.53;4961421;28;20030;-35
2023/05/15 01:51:27;;;;;;;3.63;2.90;;;10.30;99.90;;;10.01;100.00;96819.34;4955888;28;20111;-35
2023/05/15 01:53:55;;;;;;;3.15;2.40;;;10.40;99.90;;;10.04;100.00;96813.13;4957035;28;20041;-36
2023/05/15 01:56:23;;;;;;;3.15;2.75;;;10.40;99.90;;;10.03;100.00;96814.91;4960988;28;20529;-36
2023/05/15 01:58:50;;;;;;;3.83;2.88;;;10.40;99.90;;;10.02;100.00;96820.22;4954547;28;20414;-36
2023/05/15 02:01:17;;;;;;;3.50;2.83;;;10.40;99.90;;;9.99;100.00;96821.19;4952099;28;20664;-36
2023/05/15 02:03:45;;;;;;;3.58;2.83;;;10.40;99.90;;;9.93;100.00;96811.78;4941549;28;20491;-36
2023/05/15 02:06:12;;;;;;;3.70;3.05;;;10.30;99.90;;;9.84;100.00;96822.72;4952996;28;20065;-36
2023/05/15 02:08:39;;;;;;;4.97;3.00;;;10.30;99.90;;;9.78;100.00;96824.75;4956607;28;20529;-35
2023/05/15 02:11:06;;;;;;;3.75;3.03;;;10.20;99.90;;;9.63;100.00;96818.38;4956909;28;20038;-36
2023/05/15 02:13:33;;;;;;;3.35;2.80;;;10.10;99.90;;;9.59;100.00;96828.19;4956313;28;20030;-36
2023/05/15 02:15:58;;;;;;;3.83;2.67;;;10.10;99.90;;;9.52;100.00;96827.59;4959352;28;20404;-36
2023/05/15 02:18:24;;;;;;;3.28;2.70;;;10.00;99.90;;;9.45;100.00;96814.75;4954184;28;20038;-35
2023/05/15 02:20:50;;;;;;;3.38;3.08;;;9.90;99.90;;;9.41;100.00;96824.56;4955851;28;20037;-36
2023/05/15 02:23:16;;;;;;;4.78;3.30;;;9.90;99.90;;;9.36;100.00;96826.50;4957053;28;20030;-36
2023/05/15 02:26:04;;;;;;;3.72;2.85;;;9.80;99.90;;;9.33;100.00;96824.88;4965867;28;20042;-36
2023/05/15 02:28:59;;;;;;;3.42;3.08;;;9.80;99.90;;;9.34;100.00;96826.56;4974436;28;20026;-36
2023/05/15 02:31:49;;;;;;;4.30;3.00;;;9.80;99.90;;;9.31;100.00;96824.09;4973632;28;20117;-36
2023/05/15 02:34:38;;;;;;;4.07;2.80;;;9.80;99.90;;;9.33;100.00;96826.63;4965231;28;20068;-35
2023/05/15 02:37:13;;;;;;;4.93;3.30;;;9.80;99.90;;;9.32;100.00;96824.94;4954348;28;20054;-36
2023/05/15 02:39:41;;;;;;;4.60;3.03;;;9.80;99.90;;;9.27;100.00;96816.38;4970048;28;20494;-36
2023/05/15 02:42:08;;;;;;;4.10;2.95;;;9.80;99.90;;;9.38;100.00;96829.09;4973963;28;20042;-36
2023/05/15 02:44:36;;;;;;;4.22;2.95;;;9.80;99.90;;;9.38;100.00;96829.94;4968592;28;20120;-36
2023/05/15 02:47:03;;;;;;;3.78;3.13;;;9.80;99.90;;;9.40;100.00;96822.81;4970863;28;20276;-36
2023/05/15 02:49:29;;;;;;;4.40;3.20;;;9.90;99.90;;;9.45;100.00;96825.28;4970786;28;20041;-36
2023/05/15 02:51:55;;;;;;;3.97;2.90;;;9.90;99.90;;;9.48;100.00;96827.78;4969428;28;20038;-35
2023/05/15 02:54:20;;;;;;;3.58;2.85;;;10.00;99.90;;;9.51;100.00;96827.66;4974088;28;20249;-35
2023/05/15 02:56:46;;;;;;;3.70;3.20;;;10.00;99.90;;;9.47;100.00;96812.91;4967298;28;20458;-36
2023/05/15 02:59:17;;;;;;;4.22;3.35;;;10.00;99.90;;;9.56;100.00;96828.31;4966825;28;20034;-35
2023/05/15 03:01:43;;;;;;;3.85;3.22;;;10.00;99.90;;;9.63;100.00;96818.38;4967306;28;20034;-36
2023/05/15 03:04:09;;;;;;;5.03;3.33;;;10.10;99.90;;;9.67;100.00;96815.56;4975264;28;20501;-36
2023/05/15 03:06:35;;;;;;;4.15;3.20;;;10.10;99.90;;;9.68;100.00;96813.78;4971376;28;20037;-36
2023/05/15 03:09:00;;;;;;;3.70;2.90;;;10.20;99.90;;;9.77;100.00;96820.44;4970279;28;20061;-36
2023/05/15 03:11:26;;;;;;;4.93;3.17;;;10.20;99.90;;;9.79;100.00;96815.97;4984210;28;20039;-36
2023/05/15 03:13:52;;;;;;;3.38;2.88;;;10.30;99.90;;;9.84;100.00;96814.00;4971379;28;20062;-36
2023/05/15 03:16:17;;;;;;;4.03;3.50;;;10.30;99.90;;;9.87;100.00;96816.47;4971125;28;20030;-36
2023/05/15 03:18:43;;;;;;;3.20;2.90;;;10.30;99.90;;;9.89;100.00;96810.22;4956782;28;20133;-36
2023/05/15 03:21:09;;;;;;;4.07;3.15;;;10.30;99.90;;;9.91;100.00;96816.28;4972303;28;20050;-35
2023/05/15 03:23:35;;;;;;;4.40;3.00;;;10.30;99.90;;;9.89;100.00;96809.38;4960540;28;20571;-35
2023/05/15 03:26:01;;;;;;;4.32;3.33;;;10.30;99.90;;;9.89;100.00;96814.66;4991539;28;20061;-36
2023/05/15 03:28:27;;;;;;;3.90;3.00;;;10.40;99.90;;;9.86;100.00;96815.63;4965261;28;20436;-35
2023/05/15 03:30:53;;;;;;;4.78;3.25;;;10.40;99.90;;;9.86;100.00;96820.03;4968093;28;20517;-36
2023/05/15 03:33:19;;;;;;;3.78;3.30;;;10.30;99.90;;;9.85;100.00;96816.56;4969954;28;20376;-36
2023/05/15 03:35:45;;;;;;;4.53;3.47;;;10.30;99.90;;;9.82;100.00;96814.06;4975719;28;20513;-36
2023/05/15 03:38:10;;;;;;;5.47;3.20;;;10.30;99.90;;;9.82;100.00;96810.56;4971483;28;20038;-36
2023/05/15 03:40:39;;;;;;;4.00;2.92;;;10.30;99.90;;;9.81;100.00;96808.84;4971190;28;20069;-36
2023/05/15 03:43:05;;;;;;;4.22;2.90;;;10.30;99.90;;;9.73;100.00;96796.88;4965489;28;20415;-36
2023/05/15 03:45:34;;;;;;;3.90;3.33;;;10.30;99.90;;;9.75;100.00;96795.03;4973421;28;20026;-36
2023/05/15 03:47:59;;;;;;;4.35;3.08;;;10.30;99.90;;;9.81;100.00;96807.06;4971488;28;20390;-36
2023/05/15 03:50:25;;;;;;;4.70;3.28;;;10.30;99.90;;;9.77;100.00;96802.84;4965032;28;20042;-36
2023/05/15 03:52:51;;;;;;;4.35;3.00;;;10.30;99.90;;;9.76;100.00;96795.88;4972807;28;20048;-35
2023/05/15 03:55:17;;;;;;;3.90;3.28;;;10.30;99.90;;;9.85;100.00;96805.16;4965101;28;20418;-36
2023/05/15 03:57:43;;;;;;;3.40;3.10;;;10.30;99.90;;;9.88;100.00;96810.28;4973515;28;20237;-35
2023/05/15 04:00:09;;;;;;;4.05;3.28;;;10.30;99.90;;;9.91;100.00;96812.81;4965656;28;20030;-36
2023/05/15 04:02:36;;;;;;;4.15;3.35;;;10.40;99.90;;;9.94;100.00;96813.53;4963446;28;20089;-36
2023/05/15 04:05:06;;;;;;;4.75;3.22;;;10.40;99.90;;;9.98;100.00;96814.25;4971817;28;20569;-36
2023/05/15 04:07:33;;;;;;;4.72;3.35;;;10.40;99.90;;;9.97;100.00;96801.13;4977367;28;20042;-36
2023/05/15 04:10:02;;;;;;;7.30;3.60;;;10.50;99.90;;;10.03;100.00;96803.47;4973912;28;20113;-35
2023/05/15 04:12:32;;;;;;;4.30;3.70;;;10.50;99.90;;;10.09;100.00;96806.72;4966998;28;20030;-35
2023/05/15 04:15:16;;;;;;;3.85;3.30;;;10.60;99.90;;;10.12;100.00;96809.22;4968141;28;20030;-36
2023/05/15 04:17:46;;;;;;;4.45;3.42;;;10.60;99.90;;;10.22;100.00;96814.91;4973628;28;20376;-36
2023/05/15 04:20:14;;;;;;;6.07;3.38;;;10.70;99.90;;;10.26;100.00;96818.28;4966085;28;20113;-35
2023/05/15 04:22:41;;;;;;;7.00;3.28;;;10.70;99.90;;;10.18;100.00;96800.19;4968910;28;20034;-36
2023/05/15 04:25:08;;;;;;;4.25;3.38;;;10.70;99.90;;;10.32;100.00;96818.03;4964222;28;20057;-36
2023/05/15 04:27:35;;;;;;;5.32;3.92;;;10.80;99.90;;;10.29;100.00;96800.53;4973251;28;20018;-36
2023/05/15 04:30:02;;;;;;;6.10;3.72;;;10.80;99.90;;;10.43;100.00;96813.13;4960306;28;20513;-36
2023/05/15 04:32:29;;;;;;;4.47;3.67;;;10.90;99.90;;;10.47;100.00;96812.06;4959118;28;20128;-35
2023/05/15 04:34:55;;;;;;;4.35;3.63;;;10.90;99.90;;;10.54;100.00;96809.16;4952155;28;20042;-36
2023/05/15 04:37:20;;;;;;;4.65;3.22;;;11.00;99.90;;;10.61;100.00;96807.94;4969376;28;20018;-36
2023/05/15 04:39:46;;;;;;;4.68;3.47;;;11.10;99.90;;;10.64;100.00;96811.28;4971113;28;20458;-35
2023/05/15 04:42:12;;;;;;;5.85;3.47;;;11.10;99.90;;;10.67;100.00;96807.66;4964282;28;20314;-36
2023/05/15 04:44:38;;;;;;;6.63;4.43;;;11.10;99.90;;;10.72;100.00;96807.44;4956674;28;20517;-36
2023/05/15 04:47:03;;;;;;;4.68;3.50;;;11.10;99.90;;;10.77;100.00;96811.56;4960760;28;20030;-36
2023/05/15 04:49:29;;;;;;;4.80;3.33;;;11.20;99.90;;;10.84;100.00;96813.00;4974699;28;20034;-36
2023/05/15 04:51:55;;;;;;;4.35;3.60;;;11.30;99.90;;;10.65;100.00;96769.94;4965955;28;20632;-36
2023/05/15 04:54:21;;;;;;;4.63;3.83;;;11.30;99.90;;;10.97;100.00;96815.91;4968258;28;20113;-36
2023/05/15 04:56:46;;;;;;;4.50;3.40;;;11.40;99.90;;;11.03;100.00;96817.38;4964115;28;21423;-36
2023/05/15 04:59:12;;;;;;;5.22;3.90;;;11.40;99.90;;;11.05;100.00;96819.03;4965402;28;20089;-36
2023/05/15 05:01:38;;;;;;;5.10;3.75;;;11.40;99.90;;;11.09;100.00;96817.09;4966103;28;20069;-36
2023/05/15 05:04:04;;;;;;;7.13;3.65;;;11.50;99.90;;;11.20;100.00;96821.84;4972473;28;20066;-35
2023/05/15 05:06:30;;;;;;;5.07;3.80;;;11.60;99.90;;;11.32;100.00;96823.03;4968105;28;21081;-35
2023/05/15 05:08:57;;;;;;;4.53;3.70;;;11.70;99.90;;;11.42;100.00;96819.00;4965238;28;20053;-36
2023/05/15 05:11:22;;;;;;;4.85;3.67;;;11.80;99.90;;;11.53;100.00;96823.75;4967899;28;20471;-36
2023/05/15 05:13:48;;;;;;;3.80;3.10;;;11.90;99.90;;;11.65;100.00;96823.16;4963671;28;20038;-37
2023/05/15 05:16:14;;;;;;;4.93;3.75;;;12.00;99.90;;;11.75;100.00;96828.81;4961873;28;20046;-36
2023/05/15 05:18:40;;;;;;;7.28;3.83;;;12.10;99.90;;;11.84;100.00;96833.63;4950403;28;20532;-36
2023/05/15 05:21:05;;;;;;;4.70;3.88;;;12.20;99.90;;;11.80;100.00;96813.59;4962496;28;20111;-36
2023/05/15 05:23:31;;;;;;;5.35;3.78;;;12.30;99.90;;;11.93;100.00;96833.16;4973077;28;20141;-36
2023/05/15 05:25:59;;;;;;;4.13;3.30;;;12.30;99.90;;;11.95;100.00;96841.91;4968843;28;20521;-36
2023/05/15 05:28:25;;;;;;;5.60;3.58;;;12.30;99.90;;;11.95;100.00;96833.97;4963725;28;20053;-36
2023/05/15 05:30:50;;;;;;;6.35;3.70;;;12.30;99.90;;;12.02;100.00;96843.28;4963370;28;20038;-36
2023/05/15 05:33:16;;;;;;;4.72;3.92;;;12.30;99.90;;;12.10;100.00;96842.91;4966960;28;20447;-36
2023/05/15 05:35:42;;;;;;;6.28;3.67;;;12.40;99.90;;;12.25;100.00;96843.88;4968600;28;20034;-36
2023/05/15 05:38:08;;;;;;;6.55;4.70;;;12.60;99.90;;;12.44;100.00;96838.47;4971376;28;20054;-36
2023/05/15 05:40:33;;;;;;;5.25;4.03;;;12.70;99.90;;;12.69;100.00;96838.00;4971385;28;20038;-37
2023/05/15 05:43:00;;;;;;;5.00;4.40;;;12.90;99.90;;;12.85;100.00;96847.72;4967430;28;20038;-36
2023/05/15 05:45:26;;;;;;;7.63;5.93;;;13.00;99.90;;;12.83;100.00;96844.31;4961981;28;20022;-37
2023/05/15 05:47:56;;;;;;;7.43;5.05;;;13.00;99.90;;;12.92;100.00;96841.16;4962680;28;20121;-36
2023/05/15 05:50:23;;;;;;;7.35;5.22;;;13.10;99.90;;;12.92;100.00;96841.16;4967933;28;20223;-36
2023/05/15 05:52:48;;;;;;;6.93;5.13;;;13.10;99.90;;;12.91;100.00;96837.69;4971361;28;20034;-36
2023/05/15 05:55:14;;;;;;;7.75;5.50;;;13.20;99.90;;;12.95;100.00;96838.34;4969400;28;20049;-36
2023/05/15 05:57:40;;;;;;;8.55;4.93;;;13.20;99.90;;;12.88;100.00;96823.75;4970354;28;20070;-36
2023/05/15 06:00:10;;;;;;;10.63;5.57;;;13.20;99.90;;;13.04;100.00;96845.78;4964451;28;20497;-36
2023/05/15 06:02:39;;;;;;;8.48;5.53;;;13.30;99.90;;;13.04;100.00;96844.94;4963909;28;20130;-36
2023/05/15 06:05:06;;;;;;;8.25;6.00;;;13.40;99.90;;;13.03;100.00;96845.88;4964423;28;20145;-37
2023/05/15 06:07:34;;;;;;;8.25;7.07;;;13.40;99.90;;;13.03;100.00;96852.03;4965069;28;20034;-37
2023/05/15 06:10:00;;;;;;;9.65;6.93;;;13.40;99.90;;;13.08;100.00;96850.00;4966077;28;20472;-36
2023/05/15 06:12:26;;;;;;;8.95;6.05;;;13.40;99.90;;;13.20;100.00;96850.22;4957206;28;20100;-36
2023/05/15 06:14:52;;;;;;;11.88;6.13;;;13.50;99.90;;;13.23;100.00;96858.00;4961521;28;20027;-36
2023/05/15 06:17:18;;;;;;;7.63;5.43;;;13.60;99.90;;;13.31;100.00;96858.44;4960549;28;20493;-36
2023/05/15 06:19:45;;;;;;;9.57;6.50;;;13.60;99.90;;;13.36;100.00;96854.59;4955337;28;20493;-36
2023/05/15 06:22:11;;;;;;;8.63;5.93;;;13.70;99.90;;;13.43;100.00;96857.75;4971791;28;20041;-36
2023/05/15 06:24:36;;;;;;;7.03;6.00;;;13.70;99.90;;;13.52;100.00;96854.56;4971212;28;20126;-36
2023/05/15 06:27:02;;;;;;;7.25;6.05;;;13.80;99.90;;;13.69;100.00;96855.41;4975383;28;20026;-37
2023/05/15 06:29:28;;;;;;;10.20;5.35;;;13.90;99.90;;;13.89;100.00;96844.50;4968405;28;20034;-37
2023/05/15 06:31:54;;;;;;;12.10;5.80;;;14.10;99.90;;;14.01;100.00;96850.84;4973013;28;20038;-37
2023/05/15 06:34:19;;;;;;;7.88;5.90;;;14.20;99.90;;;14.04;100.00;96850.69;4976324;28;20101;-37
2023/05/15 06:36:45;;;;;;;8.27;5.38;;;14.40;99.90;;;14.04;100.00;96855.97;4975857;28;20030;-36
2023/05/15 06:39:11;;;;;;;6.72;4.97;;;14.40;99.90;;;14.18;100.00;96854.31;4967822;28;20035;-36
2023/05/15 06:41:37;;;;;;;7.65;5.70;;;14.50;99.90;;;14.19;100.00;96851.53;4972651;28;20038;-36
2023/05/15 06:44:03;;;;;;;11.45;5.43;;;14.60;99.90;;;14.30;100.00;96861.50;4972837;28;20042;-36
2023/05/15 06:46:29;;;;;;;6.60;5.10;;;14.60;99.90;;;14.35;100.00;96861.25;4973908;28;20033;-36
2023/05/15 06:48:55;;;;;;;6.85;5.20;;;14.70;99.90;;;14.49;100.00;96851.47;4972807;28;20034;-36
2023/05/15 06:51:20;;;;;;;6.78;3.90;;;14.80;99.90;;;14.62;100.00;96856.06;4974738;28;20030;-36
2023/05/15 06:53:46;;;;;;;5.35;4.07;;;14.90;99.90;;;14.75;100.00;96857.03;4976773;28;20116;-36
2023/05/15 06:56:12;;;;;;;8.23;3.80;;;15.00;99.90;;;14.88;100.00;96855.31;4975632;28;20034;-36
2023/05/15 06:58:37;;;;;;;11.50;3.40;;;15.10;99.90;;;14.94;100.00;96840.78;4973246;28;20499;-36
2023/05/15 07:01:05;;;;;;;6.03;3.20;;;15.20;99.90;;;15.18;100.00;96858.75;4971241;28;20023;-36
2023/05/15 07:03:31;;;;;;;5.22;3.90;;;15.30;99.90;;;15.30;100.00;96857.13;4972445;28;20364;-36
2023/05/15 07:05:57;;;;;;;5.35;4.35;;;15.40;99.90;;;15.35;100.00;96855.03;4969252;28;20104;-36
2023/05/15 07:08:23;;;;;;;10.57;3.92;;;15.50;99.90;;;15.54;100.00;96865.28;4973472;28;20478;-36
2023/05/15 07:10:48;;;;;;;5.32;3.67;;;15.60;99.90;;;15.66;100.00;96856.50;4974267;28;20093;-36
2023/05/15 07:13:19;;;;;;;3.88;3.38;;;15.70;99.90;;;15.84;100.00;96852.69;4977022;28;20511;-36
2023/05/15 07:15:45;;;;;;;8.23;3.90;;;15.80;99.90;;;15.96;100.00;96858.13;4975444;28;20160;-36
2023/05/15 07:18:11;;;;;;;3.30;2.70;;;15.90;99.90;;;16.06;100.00;96845.03;4977572;28;20030;-36
2023/05/15 07:20:37;;;;;;;3.58;2.92;;;16.00;99.90;;;16.19;100.00;96862.72;4966225;28;20050;-36
2023/05/15 07:23:03;;;;;;;3.95;2.72;;;16.20;99.90;;;16.21;100.00;96849.34;4970251;28;20030;-36
2023/05/15 07:25:29;;;;;;;4.13;3.00;;;16.20;99.90;;;16.21;99.27;96854.66;4974470;28;20022;-36
2023/05/15 07:27:55;;;;;;;5.10;3.00;;;16.30;99.90;;;16.17;97.83;96859.34;4974044;28;20062;-36
2023/05/15 07:30:21;;;;;;;5.65;2.55;;;16.30;99.90;;;16.10;99.66;96863.38;4974517;28;20554;-36
2023/05/15 07:32:47;;;;;;;7.72;2.33;;;16.20;99.90;;;16.11;100.00;96862.38;4967326;28;20041;-36
2023/05/15 07:35:13;;;;;;;3.60;2.88;;;16.20;99.90;;;16.17;100.00;96864.66;4973822;28;20038;-37
2023/05/15 07:37:39;;;;;;;3.10;2.55;;;16.30;99.90;;;16.24;100.00;96857.13;4991981;23;20034;-35
2023/05/15 07:40:06;;;;;;;3.85;3.30;;;16.40;99.90;;;16.19;98.58;96860.06;5007975;28;20411;-37
2023/05/15 07:42:32;;;;;;;6.03;2.83;;;16.40;99.90;;;16.27;98.60;96858.69;5012684;28;20032;-35
2023/05/15 07:44:58;;;;;;;4.10;3.00;;;16.40;99.90;;;16.16;99.05;96865.59;5009186;28;20429;-37
2023/05/15 07:47:23;;;;;;;6.35;2.70;;;16.40;99.90;;;16.14;100.00;96864.84;5013656;28;20501;-37
2023/05/15 07:49:49;;;;;;;4.82;2.85;;;16.40;99.90;;;16.10;100.00;96870.50;5013330;28;20533;-35
2023/05/15 07:52:15;;;;;;;6.18;3.10;;;16.30;99.90;;;16.09;98.02;96871.44;5011766;28;20564;-35
2023/05/15 07:54:41;;;;;;;3.63;2.80;;;16.30;99.90;;;16.07;99.10;96863.56;5015622;28;20056;-35
2023/05/15 07:57:07;;;;;;;4.15;3.33;;;16.30;99.90;;;16.10;100.00;96852.72;5015881;28;20363;-35
2023/05/15 07:59:34;;;;;;;3.53;2.90;;;16.40;99.90;;;16.31;97.66;96863.72;5016405;28;20040;-36
2023/05/15 08:02:00;;;;;;;5.85;3.22;;;16.50;99.90;;;16.16;92.26;96846.97;5013208;28;20029;-36
2023/05/15 08:04:26;;;;;;;6.03;2.85;;;16.50;99.90;;;16.30;94.29;96867.31;5015048;28;20037;-36
2023/05/15 08:06:52;;;;;;;3.45;2.75;;;16.60;99.90;;;16.44;98.11;96854.88;5014992;28;20025;-36
2023/05/15 08:09:17;;;;;;;3.55;2.30;;;16.60;99.90;;;16.57;98.29;96864.56;5011442;28;20041;-36
2023/05/15 08:11:43;;;;;;;3.50;3.10;;;16.80;99.90;;;16.65;90.36;96869.34;5016061;28;20433;-36
2023/05/15 08:14:09;;;;;;;4.18;2.75;;;16.90;99.90;;;16.82;93.01;96868.16;5008765;28;20041;-36
2023/05/15 08:16:35;;;;;;;3.85;2.60;;;17.00;99.90;;;16.83;87.93;96843.25;5019066;28;20421;-37
2023/05/15 08:19:03;;;;;;;4.43;2.40;;;17.10;99.90;;;17.02;92.27;96850.81;5009799;28;20042;-37
2023/05/15 08:21:30;;;;;;;3.33;2.72;;;17.10;99.90;;;17.05;88.03;96849.72;5016126;28;20037;-36
2023/05/15 08:23:57;;;;;;;3.58;2.47;;;17.30;99.90;;;17.04;93.05;96838.22;5014818;28;20115;-36
2023/05/15 08:26:23;;;;;;;2.83;2.00;;;17.30;99.90;;;17.16;86.97;96853.31;5017943;28;20048;-36
2023/05/15 08:28:49;;;;;;;3.42;2.30;;;17.40;99.90;;;17.23;87.38;96853.72;5014911;28;20565;-36
2023/05/15 08:31:15;;;;;;;4.10;2.20;;;17.40;99.90;;;17.36;89.06;96846.53;5019059;28;20152;-36
2023/05/15 08:33:40;;;;;;;4.25;2.50;;;17.60;99.90;;;17.43;86.91;96857.59;5019113;28;20041;-36
2023/05/15 08:36:07;;;;;;;4.28;2.83;;;17.70;99.90;;;17.29;80.95;96850.59;5018685;28;20049;-37
2023/05/15 08:38:33;;;;;;;2.90;2.55;;;17.70;99.90;;;17.41;87.68;96861.31;5016903;28;20061;-35
2023/05/15 08:41:06;;;;;;;3.75;3.03;;;17.80;99.90;;;17.39;81.19;96857.94;5015166;28;20028;-36
2023/05/15 08:43:35;;;;;;;3.22;2.30;;;17.70;99.90;;;17.34;83.78;96856.47;5017991;28;20044;-36
2023/05/15 08:46:02;;;;;;;2.65;2.20;;;17.70;99.90;;;17.22;89.47;96849.34;5020214;28;20120;-36
2023/05/15 08:48:29;;;;;;;3.50;1.88;;;17.50;99.90;;;17.26;94.98;96847.31;5017707;28;20033;-37
2023/05/15 08:50:57;;;;;;;2.47;2.10;;;17.40;99.90;;;17.27;93.36;96844.53;5012308;28;20502;-37
2023/05/15 08:53:23;;;;;;;4.18;2.45;;;17.50;99.90;;;17.38;86.65;96840.25;5017069;28;21834;-36
2023/05/15 08:55:49;;;;;;;3.95;2.55;;;17.60;99.90;;;17.36;78.54;96838.53;5016979;28;20021;-37
2023/05/15 08:58:16;;;;;;;2.58;2.35;;;17.70;99.90;;;17.50;82.80;96839.34;5018104;28;20041;-36
2023/05/15 09:00:41;;;;;;;5.40;2.58;;;17.70;99.90;;;17.56;76.35;96839.72;5016083;28;20045;-37
2023/05/15 09:03:17;;;;;;;3.90;2.33;;;17.90;99.90;;;17.73;81.92;96842.97;5016159;28;20038;-36
2023/05/15 09:05:43;;;;;;;7.47;3.03;;;18.00;99.90;;;17.93;74.33;96836.19;5018702;28;20475;-36
2023/05/15 09:08:09;;;;;;;2.67;2.45;;;18.20;99.90;;;18.11;79.65;96840.09;5015455;28;20184;-36
2023/05/15 09:10:35;;;;;;;5.03;2.38;;;18.30;99.90;;;18.20;81.95;96827.03;5017089;28;20034;-37
2023/05/15 09:13:01;;;;;;;2.65;2.30;;;18.50;99.90;;;18.43;79.73;96830.56;5013897;28;20051;-36
2023/05/15 09:15:29;;;;;;;6.25;2.78;;;18.70;99.90;;;18.50;73.17;96823.78;5012076;28;20041;-36
2023/05/15 09:17:55;;;;;;;8.75;3.15;;;18.80;99.90;;;18.28;72.91;96832.63;5009017;28;20362;-38
2023/05/15 09:20:30;;;;;;;3.28;2.30;;;18.60;99.90;;;17.97;78.74;96832.31;5010666;28;20057;-36
2023/05/15 09:23:02;;;;;;;3.67;2.58;;;18.30;99.90;;;17.67;81.76;96841.59;5015771;28;20025;-36
2023/05/15 09:25:33;;;;;;;5.22;3.13;;;18.00;99.90;;;17.67;89.45;96828.25;5013513;28;20492;-36
2023/05/15 09:28:00;;;;;;;3.05;2.55;;;18.00;99.90;;;17.58;83.59;96830.78;5005526;28;20076;-36
2023/05/15 09:30:26;;;;;;;3.97;2.55;;;17.90;99.90;;;17.48;84.13;96841.25;5002645;28;20044;-36
2023/05/15 09:32:54;;;;;;;3.53;2.47;;;17.80;99.90;;;17.53;81.41;96828.44;5013430;28;20060;-36
2023/05/15 09:35:35;;;;;;;3.40;2.78;;;17.80;99.90;;;17.55;78.76;96829.22;5012955;28;20421;-38
2023/05/15 09:38:03;;;;;;;3.47;2.70;;;17.80;99.90;;;17.59;74.05;96833.34;5012837;28;20235;-36
2023/05/15 09:40:30;;;;;;;2.95;2.65;;;17.80;99.90;;;17.61;76.19;96834.06;5016550;28;20040;-36
2023/05/15 09:42:57;;;;;;;6.53;2.80;;;17.90;99.90;;;17.74;80.47;96826.84;5012019;28;20030;-36
2023/05/15 09:45:25;;;;;;;6.40;3.10;;;18.00;99.90;;;17.81;70.39;96826.41;5015374;28;20399;-36
2023/05/15 09:47:52;;;;;;;4.57;2.90;;;18.10;99.90;;;17.88;74.64;96828.50;5015529;28;20022;-37
2023/05/15 09:50:34;;;;;;;4.70;2.40;;;18.10;99.90;;;17.95;73.84;96815.56;5015370;28;20056;-36
2023/05/15 09:53:00;;;;;;;7.90;3.17;;;18.20;99.90;;;17.84;72.11;96811.00;5013520;28;20029;-36
2023/05/15 09:55:26;;;;;;;3.08;2.60;;;18.20;99.90;;;18.05;79.01;96811.25;5018166;28;20041;-36
2023/05/15 09:58:10;;;;;;;3.60;3.10;;;18.30;99.90;;;18.03;72.41;96814.97;5014702;28;20044;-36
2023/05/15 10:00:37;;;;;;;3.33;2.65;;;18.30;99.90;;;17.77;72.86;96819.59;5015409;28;20440;-37
2023/05/15 10:03:05;;;;;;;4.03;2.47;;;18.10;99.90;;;17.67;75.67;96812.28;5016340;28;20037;-36
2023/05/15 10:05:31;;;;;;;3.30;2.67;;;18.00;99.90;;;17.65;71.63;96810.69;5012484;28;20113;-38
2023/05/15 10:07:58;;;;;;;4.53;2.70;;;18.00;99.90;;;17.65;79.17;96810.69;5016222;28;20144;-39
2023/05/15 10:10:25;;;;;;;4.55;3.00;;;17.90;99.90;;;17.65;72.04;96808.03;5016772;28;20112;-39
2023/05/15 10:12:52;;;;;;;4.10;2.72;;;17.90;99.90;;;17.71;72.42;96803.09;5015082;28;20033;-39
2023/05/15 10:15:21;;;;;;;3.67;2.80;;;18.00;99.90;;;17.76;75.45;96800.06;5011227;28;20531;-37
2023/05/15 10:17:48;;;;;;;5.93;2.50;;;18.10;99.90;;;17.82;79.86;96793.41;5013213;28;20040;-37
2023/05/15 10:20:20;;;;;;;3.90;2.80;;;18.10;99.90;;;17.89;76.85;96797.34;5011417;28;20574;-37